Time;durP1;ratioP1;P1;durP2;ratioP2;P2;SDS_P1;SDS_P2;PMS_P1;PMS_P2;Temp;Humidity;BMP_temperature;BMP_pressure;BME280_temperature;BME280_humidity;BME280_pressure;Samples;Min_cycle;Max_cycle;Signal;HPM_P1;HPM_P2
2021/11/15 00:00:54;;;;;;;;;;;;;;;6.29;49.59;96241.22;5001030;28;19921;-61
2021/11/15 00:03:19;;;;;;;;;;;;;;;6.03;49.03;96245.19;5000558;28;19928;-63
2021/11/15 00:05:44;;;;;;;;;;;;;;;6.32;48.82;96236.50;5000717;28;19929;-62
2021/11/15 00:08:09;;;;;;;;;;;;;;;5.76;50.17;96238.69;5000750;28;20089;-61
2021/11/15 00:10:35;;;;;;;;;;;;;;;5.99;51.12;96243.78;5000617;28;20496;-63
2021/11/15 00:13:00;;;;;;;;;;;;;;;6.23;50.24;96234.66;5000802;28;19993;-60
2021/11/15 00:15:28;;;;;;;;;;;;;;;6.33;50.55;96229.41;4998618;28;20199;-61
2021/11/15 00:17:53;;;;;;;;;;;;;;;6.31;48.98;96241.91;5000639;28;20279;-60
2021/11/15 00:20:18;;;;;;;;;;;;;;;6.49;50.70;96232.38;5000911;28;20040;-63
2021/11/15 00:22:44;;;;;;;;;;;;;;;6.56;50.08;96229.19;5000313;28;20314;-64
2021/11/15 00:25:09;;;;;;;;;;;;;;;6.50;50.26;96226.09;5000698;28;19925;-61
2021/11/15 00:27:35;;;;;;;;;;;;;;;6.56;50.87;96226.56;4999808;28;20233;-63
2021/11/15 00:30:00;;;;;;;;;;;;;;;6.59;50.37;96231.53;5000978;28;19917;-61
2021/11/15 00:32:26;;;;;;;;;;;;;;;6.30;48.71;96232.31;5000375;28;19921;-61
2021/11/15 00:34:51;;;;;;;;;;;;;;;6.46;50.49;96227.31;5000791;28;19918;-59
2021/11/15 00:37:17;;;;;;;;;;;;;;;5.99;52.25;96230.56;4999116;28;19960;-63
2021/11/15 00:39:42;;;;;;;;;;;;;;;6.20;49.82;96227.00;5000270;28;19968;-63
2021/11/15 00:42:07;;;;;;;;;;;;;;;6.46;49.36;96222.03;4999608;28;19921;-60
2021/11/15 00:44:32;;;;;;;;;;;;;;;6.52;48.92;96222.50;5015204;28;20321;-59
2021/11/15 00:46:58;;;;;;;;;;;;;;;6.55;48.22;96227.50;5003122;28;19943;-61
2021/11/15 00:49:23;;;;;;;;;;;;;;;6.56;48.08;96224.72;4998509;28;19957;-63
2021/11/15 00:51:48;;;;;;;;;;;;;;;6.40;49.74;96227.03;5000311;28;20544;-63
2021/11/15 00:54:13;;;;;;;;;;;;;;;6.34;50.94;96213.41;5000892;28;20024;-60
2021/11/15 00:56:39;;;;;;;;;;;;;;;6.45;48.90;96219.53;5000288;28;19971;-63
2021/11/15 00:59:04;;;;;;;;;;;;;;;6.53;49.06;96226.81;5000588;28;20473;-61
2021/11/15 01:01:29;;;;;;;;;;;;;;;6.58;48.96;96224.59;5000163;28;19999;-62
2021/11/15 01:03:54;;;;;;;;;;;;;;;6.53;50.12;96229.47;5000292;28;19988;-60
2021/11/15 01:06:20;;;;;;;;;;;;;;;6.28;50.14;96235.09;5000464;28;19925;-63
2021/11/15 01:08:45;;;;;;;;;;;;;;;6.46;50.28;96237.91;5000437;28;19949;-63
2021/11/15 01:11:10;;;;;;;;;;;;;;;6.39;49.54;96231.47;4999813;28;19921;-61
2021/11/15 01:13:35;;;;;;;;;;;;;;;6.27;50.52;96237.88;4999925;28;19946;-62
2021/11/15 01:16:01;;;;;;;;;;;;;;;6.44;49.29;96233.72;4999900;28;19921;-62
2021/11/15 01:18:26;;;;;;;;;;;;;;;6.46;49.06;96232.63;4998183;28;19925;-61
2021/11/15 01:20:51;;;;;;;;;;;;;;;6.52;48.91;96228.63;4998697;28;19929;-63
2021/11/15 01:23:17;;;;;;;;;;;;;;;6.56;49.41;96222.06;4999651;28;19921;-64
2021/11/15 01:25:42;;;;;;;;;;;;;;;6.56;51.06;96226.56;5000232;28;20320;-63
2021/11/15 01:28:07;;;;;;;;;;;;;;;6.53;50.96;96226.81;4999893;28;20470;-61
2021/11/15 01:30:33;;;;;;;;;;;;;;;6.58;49.91;96219.28;5000037;28;19921;-63
2021/11/15 01:32:58;;;;;;;;;;;;;;;6.68;49.50;96214.84;4999721;28;20413;-61
2021/11/15 01:35:23;;;;;;;;;;;;;;;6.42;49.03;96211.88;5014159;28;20056;-61
2021/11/15 01:37:48;;;;;;;;;;;;;;;6.30;48.74;96219.09;4999771;28;19925;-60
2021/11/15 01:40:17;;;;;;;;;;;;;;;6.49;50.63;96224.44;4999497;28;19921;-64
2021/11/15 01:42:43;;;;;;;;;;;;;;;6.33;48.51;96221.47;4998240;28;19975;-62
2021/11/15 01:45:08;;;;;;;;;;;;;;;6.44;50.93;96217.84;5000148;28;19964;-61
2021/11/15 01:47:33;;;;;;;;;;;;;;;6.55;49.67;96225.69;5003136;28;20361;-60
2021/11/15 01:49:59;;;;;;;;;;;;;;;6.55;50.07;96219.56;4994925;28;19918;-63
2021/11/15 01:52:24;;;;;;;;;;;;;;;6.66;48.63;96216.78;4998871;28;19921;-62
2021/11/15 01:54:50;;;;;;;;;;;;;;;6.54;49.87;96218.75;4999798;28;19922;-62
2021/11/15 01:57:15;;;;;;;;;;;;;;;6.68;48.96;96216.66;4998981;28;19960;-62
2021/11/15 01:59:40;;;;;;;;;;;;;;;6.74;48.96;96218.75;4996068;28;20343;-63
2021/11/15 02:02:06;;;;;;;;;;;;;;;6.80;48.43;96206.78;4999252;28;20344;-63
2021/11/15 02:04:31;;;;;;;;;;;;;;;6.75;48.66;96205.41;4999471;28;19960;-62
2021/11/15 02:06:56;;;;;;;;;;;;;;;6.75;49.17;96201.91;4997994;28;20520;-60
2021/11/15 02:09:22;;;;;;;;;;;;;;;6.63;50.66;96199.38;4998915;28;19934;-64
2021/11/15 02:11:47;;;;;;;;;;;;;;;6.69;49.01;96208.59;4997995;28;20341;-60
2021/11/15 02:14:12;;;;;;;;;;;;;;;6.77;49.77;96207.91;4999331;28;19948;-60
2021/11/15 02:16:38;;;;;;;;;;;;;;;6.75;49.62;96199.25;5002279;28;19944;-63
2021/11/15 02:19:03;;;;;;;;;;;;;;;6.65;51.21;96196.59;4998875;28;20345;-62
2021/11/15 02:21:28;;;;;;;;;;;;;;;6.73;49.56;96207.34;4985078;28;19930;-62
2021/11/15 02:23:54;;;;;;;;;;;;;;;6.81;48.75;96200.50;4998480;28;20114;-62
2021/11/15 02:26:19;;;;;;;;;;;;;;;6.82;48.22;96212.75;4998860;28;20032;-63
2021/11/15 02:28:45;;;;;;;;;;;;;;;6.79;48.47;96210.38;5013273;28;19991;-63
2021/11/15 02:31:11;;;;;;;;;;;;;;;6.75;49.25;96210.69;4998848;28;19921;-60
2021/11/15 02:33:36;;;;;;;;;;;;;;;6.56;48.99;96208.84;4997508;28;20352;-61
2021/11/15 02:36:02;;;;;;;;;;;;;;;6.17;52.21;96217.53;4999083;28;20672;-63
2021/11/15 02:38:27;;;;;;;;;;;;;;;6.44;48.97;96207.28;4998615;28;19922;-62
2021/11/15 02:40:53;;;;;;;;;;;;;;;6.64;49.96;96202.88;4997927;28;19969;-61
2021/11/15 02:43:18;;;;;;;;;;;;;;;6.60;48.86;96204.13;4997951;28;19935;-63
2021/11/15 02:45:43;;;;;;;;;;;;;;;6.73;48.83;96195.91;4998180;28;20050;-60
2021/11/15 02:48:08;;;;;;;;;;;;;;;6.60;49.04;96188.25;4998729;28;19921;-60
2021/11/15 02:50:34;;;;;;;;;;;;;;;6.66;49.55;96200.91;4998170;28;19921;-63
2021/11/15 02:53:06;;;;;;;;;;;;;;;6.70;48.21;96194.38;4998234;28;19932;-60
2021/11/15 02:55:31;;;;;;;;;;;;;;;6.64;49.19;96195.75;4998486;28;19921;-63
2021/11/15 02:57:57;;;;;;;;;;;;;;;6.58;49.03;96203.44;4998624;28;20326;-61
2021/11/15 03:00:26;;;;;;;;;;;;;;;6.69;48.99;96205.09;4998261;28;19953;-60
2021/11/15 03:02:52;;;;;;;;;;;;;;;6.53;49.65;96195.06;4998485;28;20044;-63
2021/11/15 03:05:21;;;;;;;;;;;;;;;6.57;48.55;96197.31;4998929;28;20185;-64
2021/11/15 03:07:47;;;;;;;;;;;;;;;6.54;49.82;96194.09;5002467;28;19929;-63
2021/11/15 03:10:12;;;;;;;;;;;;;;;6.62;50.22;96194.22;5002156;28;19925;-62
2021/11/15 03:12:38;;;;;;;;;;;;;;;6.55;47.79;96193.97;4997413;28;20020;-63
2021/11/15 03:15:04;;;;;;;;;;;;;;;6.54;50.58;96209.97;5004122;28;20020;-61
2021/11/15 03:17:29;;;;;;;;;;;;;;;6.06;48.29;96199.13;5004298;28;19987;-62
2021/11/15 03:19:54;;;;;;;;;;;;;;;6.40;48.92;96198.78;5002957;28;19918;-60
2021/11/15 03:22:19;;;;;;;;;;;;;;;6.17;50.06;96200.81;5005235;28;19968;-61
2021/11/15 03:24:45;;;;;;;;;;;;;;;6.01;49.23;96196.88;5005705;28;19925;-63
2021/11/15 03:27:10;;;;;;;;;;;;;;;6.23;49.63;96195.00;5006569;28;20362;-60
2021/11/15 03:29:36;;;;;;;;;;;;;;;6.23;50.37;96190.53;5005758;28;19983;-60
2021/11/15 03:32:01;;;;;;;;;;;;;;;6.38;48.89;96187.50;5005557;28;20025;-60
2021/11/15 03:34:26;;;;;;;;;;;;;;;6.33;50.50;96184.44;5006003;28;19917;-62
2021/11/15 03:36:51;;;;;;;;;;;;;;;6.37;50.41;96189.31;5005265;28;19945;-61
2021/11/15 03:39:17;;;;;;;;;;;;;;;6.35;49.35;96188.63;5005636;28;20501;-64
2021/11/15 03:41:42;;;;;;;;;;;;;;;6.42;48.33;96191.53;5005417;28;19930;-60
2021/11/15 03:44:08;;;;;;;;;;;;;;;6.22;47.96;96193.31;5005381;28;20007;-62
2021/11/15 03:46:33;;;;;;;;;;;;;;;6.18;48.67;96199.84;5005863;28;19921;-61
2021/11/15 03:48:59;;;;;;;;;;;;;;;6.18;51.32;96202.50;5005603;28;19917;-60
2021/11/15 03:51:24;;;;;;;;;;;;;;;6.28;48.22;96195.41;5005454;28;19929;-63
2021/11/15 03:53:49;;;;;;;;;;;;;;;6.28;50.16;96198.06;5005682;28;19918;-64
2021/11/15 03:56:15;;;;;;;;;;;;;;;6.27;48.99;96196.41;5005796;28;19968;-61
2021/11/15 03:58:41;;;;;;;;;;;;;;;6.28;48.85;96200.72;5005703;28;19920;-59
2021/11/15 04:01:06;;;;;;;;;;;;;;;6.38;49.38;96196.28;4991962;28;19924;-60
2021/11/15 04:03:33;;;;;;;;;;;;;;;6.37;49.32;96207.00;5005551;28;19957;-62
2021/11/15 04:06:02;;;;;;;;;;;;;;;6.29;48.29;96209.50;5005440;28;20554;-62
2021/11/15 04:08:27;;;;;;;;;;;;;;;6.41;48.98;96202.25;5004815;28;19917;-61
2021/11/15 04:10:52;;;;;;;;;;;;;;;6.36;49.54;96207.97;5005448;28;20337;-60
2021/11/15 04:13:27;;;;;;;;;;;;;;;6.06;50.79;96204.44;5004961;28;20370;-62
2021/11/15 04:15:53;;;;;;;;;;;;;;;6.22;48.90;96203.88;4993442;28;19931;-61
2021/11/15 04:18:19;;;;;;;;;;;;;;;6.03;52.25;96202.03;5005257;28;20016;-62
2021/11/15 04:20:44;;;;;;;;;;;;;;;5.84;50.00;96195.72;5000066;28;20008;-60
2021/11/15 04:23:10;;;;;;;;;;;;;;;5.80;50.30;96199.59;5005088;28;20001;-62
2021/11/15 04:25:37;;;;;;;;;;;;;;;5.79;48.65;96195.28;5004442;28;20308;-63
2021/11/15 04:28:02;;;;;;;;;;;;;;;5.92;48.18;96193.25;5004506;28;19925;-60
2021/11/15 04:30:31;;;;;;;;;;;;;;;5.94;49.29;96188.66;5005473;28;19914;-59
2021/11/15 04:32:56;;;;;;;;;;;;;;;5.84;47.99;96177.22;4992053;28;20414;-61
2021/11/15 04:35:21;;;;;;;;;;;;;;;5.50;49.99;96185.47;5003496;28;19976;-59
2021/11/15 04:37:46;;;;;;;;;;;;;;;5.44;49.86;96174.44;4992121;28;20366;-62
2021/11/15 04:40:12;;;;;;;;;;;;;;;5.12;50.30;96175.38;5004599;28;20112;-63
2021/11/15 04:42:37;;;;;;;;;;;;;;;5.45;49.77;96168.16;5005026;28;19973;-62
2021/11/15 04:45:03;;;;;;;;;;;;;;;5.65;49.54;96160.34;5004499;28;20033;-61
2021/11/15 04:47:28;;;;;;;;;;;;;;;5.52;50.56;96170.28;5003010;28;20016;-62
2021/11/15 04:49:53;;;;;;;;;;;;;;;5.31;50.33;96163.25;5004760;28;20382;-63
2021/11/15 04:52:19;;;;;;;;;;;;;;;5.42;49.95;96172.91;5004130;28;20405;-61
2021/11/15 04:54:44;;;;;;;;;;;;;;;5.57;51.41;96166.28;5004690;28;19980;-63
2021/11/15 04:57:09;;;;;;;;;;;;;;;5.67;49.78;96158.41;5004015;28;20072;-62
2021/11/15 04:59:34;;;;;;;;;;;;;;;5.73;50.19;96147.31;5004019;28;20021;-60
2021/11/15 05:02:00;;;;;;;;;;;;;;;5.72;49.81;96156.19;5003737;28;19966;-62
2021/11/15 05:04:25;;;;;;;;;;;;;;;5.69;49.49;96156.47;5003803;28;20002;-60
2021/11/15 05:06:50;;;;;;;;;;;;;;;5.84;49.87;96150.78;5003913;28;20342;-61
2021/11/15 05:09:16;;;;;;;;;;;;;;;5.84;50.67;96149.00;5004100;28;19994;-62
2021/11/15 05:11:41;;;;;;;;;;;;;;;5.92;50.91;96153.59;5003992;28;19990;-61
2021/11/15 05:14:06;;;;;;;;;;;;;;;5.94;51.72;96151.66;5004350;28;20632;-62
2021/11/15 05:16:32;;;;;;;;;;;;;;;5.98;52.24;96146.94;5003202;28;20462;-64
2021/11/15 05:18:58;;;;;;;;;;;;;;;5.70;50.81;96150.22;5004005;28;20001;-60
2021/11/15 05:21:23;;;;;;;;;;;;;;;5.76;50.01;96156.78;4990302;28;20005;-62
2021/11/15 05:23:52;;;;;;;;;;;;;;;5.83;49.88;96147.34;5003838;28;20462;-60
2021/11/15 05:26:17;;;;;;;;;;;;;;;5.87;49.68;96153.19;5003717;28;19989;-61
2021/11/15 05:28:43;;;;;;;;;;;;;;;5.83;52.58;96146.50;5003044;28;20646;-60
2021/11/15 05:31:08;;;;;;;;;;;;;;;5.69;49.95;96155.63;5003043;28;19981;-61
2021/11/15 05:33:34;;;;;;;;;;;;;;;5.79;49.93;96160.94;5003654;28;19978;-62
2021/11/15 05:36:00;;;;;;;;;;;;;;;5.86;49.39;96162.09;5003037;28;19992;-61
2021/11/15 05:38:25;;;;;;;;;;;;;;;5.73;49.24;96154.38;5003758;28;20043;-62
2021/11/15 05:40:50;;;;;;;;;;;;;;;5.79;48.67;96161.78;5003628;28;19990;-60
2021/11/15 05:43:15;;;;;;;;;;;;;;;5.76;48.98;96155.91;5003304;28;20040;-62
2021/11/15 05:45:41;;;;;;;;;;;;;;;5.65;50.02;96148.94;5003428;28;19994;-63
2021/11/15 05:48:06;;;;;;;;;;;;;;;5.62;48.80;96157.97;5003286;28;20520;-63
2021/11/15 05:50:31;;;;;;;;;;;;;;;5.50;48.88;96157.22;5003456;28;19974;-62
2021/11/15 05:52:57;;;;;;;;;;;;;;;5.47;48.69;96163.59;5003582;28;20183;-61
2021/11/15 05:55:22;;;;;;;;;;;;;;;5.57;49.32;96163.66;5002724;28;20067;-63
2021/11/15 05:57:48;;;;;;;;;;;;;;;5.65;49.13;96155.06;5003682;28;20035;-60
2021/11/15 06:00:14;;;;;;;;;;;;;;;5.36;51.45;96155.78;5003100;28;20450;-62
2021/11/15 06:02:39;;;;;;;;;;;;;;;5.42;49.72;96149.97;5003506;28;20489;-62
2021/11/15 06:05:05;;;;;;;;;;;;;;;5.34;50.44;96158.53;5002834;28;19998;-62
2021/11/15 06:07:30;;;;;;;;;;;;;;;5.52;51.70;96159.72;5002464;28;19977;-63
2021/11/15 06:09:56;;;;;;;;;;;;;;;5.55;50.94;96160.28;5001746;28;20529;-61
2021/11/15 06:12:21;;;;;;;;;;;;;;;5.65;50.76;96168.28;5002741;28;19994;-61
2021/11/15 06:14:46;;;;;;;;;;;;;;;5.44;52.40;96168.34;5003168;28;19969;-60
2021/11/15 06:17:12;;;;;;;;;;;;;;;5.64;48.82;96157.84;5002599;28;20084;-61
2021/11/15 06:19:37;;;;;;;;;;;;;;;5.68;52.06;96162.72;4998383;28;20453;-61
2021/11/15 06:22:03;;;;;;;;;;;;;;;5.63;50.94;96164.06;4993055;28;20013;-60
2021/11/15 06:24:28;;;;;;;;;;;;;;;5.53;51.30;96167.53;5002592;28;20639;-63
2021/11/15 06:26:53;;;;;;;;;;;;;;;5.60;49.76;96167.81;5002706;28;19978;-60
2021/11/15 06:29:18;;;;;;;;;;;;;;;5.75;49.88;96165.69;5002509;28;20000;-61
2021/11/15 06:31:44;;;;;;;;;;;;;;;5.68;48.76;96170.63;5002834;28;19994;-64
2021/11/15 06:34:09;;;;;;;;;;;;;;;5.67;49.90;96171.59;5002783;28;19976;-62
2021/11/15 06:36:34;;;;;;;;;;;;;;;5.55;49.07;96164.75;5002558;28;20638;-62
2021/11/15 06:39:00;;;;;;;;;;;;;;;5.33;49.24;96171.88;5002755;28;19977;-64
2021/11/15 06:41:25;;;;;;;;;;;;;;;5.32;49.13;96186.91;5001791;28;20021;-63
2021/11/15 06:43:50;;;;;;;;;;;;;;;5.38;48.96;96182.91;5002638;28;19917;-62
2021/11/15 06:46:16;;;;;;;;;;;;;;;5.29;49.36;96186.31;5003046;28;20370;-62
2021/11/15 06:48:41;;;;;;;;;;;;;;;5.46;49.86;96187.50;5000775;28;20499;-61
2021/11/15 06:51:10;;;;;;;;;;;;;;;5.49;49.27;96187.25;5002785;28;20275;-63
2021/11/15 06:53:36;;;;;;;;;;;;;;;5.47;50.27;96200.59;5002219;28;19918;-60
2021/11/15 06:56:01;;;;;;;;;;;;;;;5.40;52.64;96201.22;5002308;28;20031;-61
2021/11/15 06:58:27;;;;;;;;;;;;;;;5.53;51.16;96193.09;5001165;28;19983;-61
2021/11/15 07:00:52;;;;;;;;;;;;;;;5.56;50.34;96195.47;5002242;28;19928;-63
2021/11/15 07:03:18;;;;;;;;;;;;;;;5.67;49.97;96189.25;5001917;28;20355;-61
2021/11/15 07:05:43;;;;;;;;;;;;;;;5.69;50.06;96198.75;5002715;28;19936;-61
2021/11/15 07:08:08;;;;;;;;;;;;;;;5.67;50.75;96200.66;5001706;28;20012;-61
2021/11/15 07:10:34;;;;;;;;;;;;;;;5.73;51.36;96202.78;5002650;28;20457;-61
2021/11/15 07:13:00;;;;;;;;;;;;;;;5.72;49.95;96203.75;5001694;28;20382;-62
2021/11/15 07:15:25;;;;;;;;;;;;;;;5.47;51.03;96203.22;5002549;28;19977;-63
2021/11/15 07:17:50;;;;;;;;;;;;;;;5.65;51.54;96207.91;5002621;28;20398;-61
2021/11/15 07:20:15;;;;;;;;;;;;;;;5.62;50.43;96205.53;4992505;28;20154;-60
2021/11/15 07:22:41;;;;;;;;;;;;;;;5.50;48.50;96210.03;4997541;28;20233;-62
2021/11/15 07:25:06;;;;;;;;;;;;;;;5.60;49.94;96210.09;5000562;28;20073;-61
2021/11/15 07:27:32;;;;;;;;;;;;;;;5.64;50.06;96213.31;5001553;28;19996;-61
2021/11/15 07:29:57;;;;;;;;;;;;;;;5.61;51.05;96217.88;5002476;28;19969;-60
2021/11/15 07:32:24;;;;;;;;;;;;;;;5.59;49.66;96216.34;5001174;28;20056;-61
2021/11/15 07:34:49;;;;;;;;;;;;;;;5.69;50.09;96217.25;5001846;28;19966;-58
2021/11/15 07:37:15;;;;;;;;;;;;;;;5.72;51.79;96224.88;4996832;28;20045;-62
2021/11/15 07:39:43;;;;;;;;;;;;;;;5.65;50.20;96223.75;5000625;28;19989;-63
2021/11/15 07:42:15;;;;;;;;;;;;;;;5.55;49.21;96220.22;5003729;28;19978;-59
2021/11/15 07:44:40;;;;;;;;;;;;;;;5.55;48.79;96222.88;4997671;28;20175;-59
2021/11/15 07:47:06;;;;;;;;;;;;;;;5.68;49.23;96223.47;4997933;28;20353;-60
2021/11/15 07:49:31;;;;;;;;;;;;;;;5.73;49.96;96223.09;4996362;28;20512;-61
2021/11/15 07:51:57;;;;;;;;;;;;;;;5.68;47.78;96220.00;4999307;28;20032;-63
2021/11/15 07:54:22;;;;;;;;;;;;;;;5.70;48.56;96226.84;5001830;28;20020;-61
2021/11/15 07:56:48;;;;;;;;;;;;;;;5.41;48.68;96222.22;5000425;28;20048;-63
2021/11/15 07:59:13;;;;;;;;;;;;;;;5.54;49.82;96227.31;5001466;28;20427;-60
2021/11/15 08:01:39;;;;;;;;;;;;;;;5.47;49.50;96221.72;5001321;28;20009;-62
2021/11/15 08:04:04;;;;;;;;;;;;;;;5.53;49.39;96224.78;5001223;28;20294;-61
2021/11/15 08:06:29;;;;;;;;;;;;;;;5.61;49.13;96222.31;5001784;28;19992;-61
2021/11/15 08:08:54;;;;;;;;;;;;;;;5.52;48.52;96223.97;5000502;28;20048;-63
2021/11/15 08:11:20;;;;;;;;;;;;;;;5.45;48.74;96228.91;5001088;28;19974;-64
2021/11/15 08:13:45;;;;;;;;;;;;;;;5.53;50.39;96220.34;5000224;28;20489;-60
2021/11/15 08:16:10;;;;;;;;;;;;;;;5.12;54.34;96227.31;5000085;28;20410;-62
2021/11/15 08:18:37;;;;;;;;;;;;;;;5.29;51.53;96231.19;5015795;28;20270;-58
2021/11/15 08:21:02;;;;;;;;;;;;;;;5.39;49.31;96234.72;5011670;28;20398;-63
2021/11/15 08:23:27;;;;;;;;;;;;;;;5.50;50.19;96230.34;5000790;28;20167;-62
2021/11/15 08:25:58;;;;;;;;;;;;;;;5.41;49.97;96231.97;4998741;28;20399;-63
2021/11/15 08:28:24;;;;;;;;;;;;;;;5.48;49.03;96228.66;5000109;28;20308;-63
2021/11/15 08:30:50;;;;;;;;;;;;;;;5.49;47.23;96224.22;4998531;28;20116;-63
2021/11/15 08:33:15;;;;;;;;;;;;;;;5.27;49.02;96219.94;5012289;28;20520;-62
2021/11/15 08:35:40;;;;;;;;;;;;;;;5.20;49.44;96220.44;4995854;28;19936;-63
2021/11/15 08:38:05;;;;;;;;;;;;;;;5.18;50.44;96222.38;4999897;28;19921;-62
2021/11/15 08:40:31;;;;;;;;;;;;;;;4.95;48.56;96222.47;5000676;28;19925;-62
2021/11/15 08:42:56;;;;;;;;;;;;;;;4.88;49.58;96217.81;5000980;28;19926;-62
2021/11/15 08:45:21;;;;;;;;;;;;;;;4.96;50.11;96226.78;4999755;28;19934;-62
2021/11/15 08:47:46;;;;;;;;;;;;;;;5.02;50.56;96222.78;5000748;28;20065;-61
2021/11/15 08:50:12;;;;;;;;;;;;;;;5.14;50.53;96228.88;5000562;28;20178;-62
2021/11/15 08:52:37;;;;;;;;;;;;;;;5.27;50.68;96225.22;5000458;28;19948;-60
2021/11/15 08:55:03;;;;;;;;;;;;;;;5.21;49.95;96230.03;5000640;28;20460;-62
2021/11/15 08:57:28;;;;;;;;;;;;;;;5.42;51.32;96231.00;5000226;28;20002;-60
2021/11/15 08:59:55;;;;;;;;;;;;;;;5.38;52.03;96226.94;4999034;28;19937;-62
2021/11/15 09:02:20;;;;;;;;;;;;;;;5.09;56.25;96226.63;5000101;28;20039;-60
2021/11/15 09:04:46;;;;;;;;;;;;;;;5.32;53.29;96229.16;4998637;28;19933;-62
2021/11/15 09:07:11;;;;;;;;;;;;;;;5.56;50.08;96224.53;4999880;28;20147;-64
2021/11/15 09:09:37;;;;;;;;;;;;;;;5.65;50.08;96230.84;5007336;28;19979;-63
2021/11/15 09:12:05;;;;;;;;;;;;;;;5.65;51.18;96226.41;4997163;28;19925;-63
2021/11/15 09:14:31;;;;;;;;;;;;;;;5.71;50.51;96225.84;4999556;28;19933;-64
2021/11/15 09:16:56;;;;;;;;;;;;;;;5.79;50.58;96230.50;4999605;28;19964;-63
2021/11/15 09:19:21;;;;;;;;;;;;;;;5.65;51.49;96223.75;4995366;28;19926;-61
2021/11/15 09:21:47;;;;;;;;;;;;;;;5.64;50.09;96227.34;4999907;28;19976;-63
2021/11/15 09:24:12;;;;;;;;;;;;;;;5.72;50.69;96219.59;4999385;28;19921;-61
2021/11/15 09:26:37;;;;;;;;;;;;;;;5.67;49.58;96228.88;4997368;28;19933;-60
2021/11/15 09:29:03;;;;;;;;;;;;;;;5.66;50.27;96228.06;4989217;28;20318;-64
2021/11/15 09:31:29;;;;;;;;;;;;;;;5.67;48.04;96221.81;4999280;28;19924;-62
2021/11/15 09:33:54;;;;;;;;;;;;;;;5.81;47.65;96227.69;4999203;28;19992;-62
2021/11/15 09:36:23;;;;;;;;;;;;;;;5.84;48.23;96215.06;4998808;28;19922;-63
2021/11/15 09:38:49;;;;;;;;;;;;;;;5.50;48.58;96220.59;4999726;28;19925;-56
2021/11/15 09:41:14;;;;;;;;;;;;;;;5.50;47.98;96220.59;4998836;28;19929;-60
2021/11/15 09:43:39;;;;;;;;;;;;;;;5.67;48.06;96226.25;5002344;28;19932;-62
2021/11/15 09:46:09;;;;;;;;;;;;;;;5.44;49.00;96221.97;5015625;28;19979;-60
2021/11/15 09:48:35;;;;;;;;;;;;;;;5.56;50.27;96227.16;4999204;28;19929;-59
2021/11/15 09:51:01;;;;;;;;;;;;;;;5.71;49.97;96222.38;4999675;28;19927;-61
2021/11/15 09:53:26;;;;;;;;;;;;;;;5.71;49.60;96217.94;4995606;28;20363;-62
2021/11/15 09:55:51;;;;;;;;;;;;;;;5.53;47.92;96217.72;4996858;28;20008;-63
2021/11/15 09:58:17;;;;;;;;;;;;;;;5.40;48.50;96217.06;4993018;28;20031;-61
2021/11/15 10:00:44;;;;;;;;;;;;;;;5.55;49.65;96213.13;4995553;28;19925;-62
2021/11/15 10:03:10;;;;;;;;;;;;;;;5.34;48.63;96210.53;4996133;28;20008;-62
2021/11/15 10:05:35;;;;;;;;;;;;;;;5.47;48.90;96215.59;4997640;28;20079;-61
2021/11/15 10:08:04;;;;;;;;;;;;;;;5.51;50.04;96218.81;4997988;28;19925;-61
2021/11/15 10:10:55;;;;;;;;;;;;;;;5.68;50.36;96218.19;4993174;28;19922;-62
2021/11/15 10:13:22;;;;;;;;;;;;;;;5.52;54.16;96218.69;4991614;28;19925;-64
2021/11/15 10:15:52;;;;;;;;;;;;;;;5.61;49.37;96217.88;4998030;28;19968;-62
2021/11/15 10:18:41;;;;;;;;;;;;;;;5.65;47.46;96210.56;4993690;28;20012;-59
2021/11/15 10:21:17;;;;;;;;;;;;;;;5.75;47.02;96218.53;4989948;28;19929;-61
2021/11/15 10:23:44;;;;;;;;;;;;;;;5.47;47.84;96218.22;4999487;28;20484;-62
2021/11/15 10:26:20;;;;;;;;;;;;;;;5.43;48.05;96212.38;4998698;28;20460;-60
2021/11/15 10:28:45;;;;;;;;;;;;;;;5.41;48.51;96218.75;4998361;28;19933;-61
2021/11/15 10:31:29;;;;;;;;;;;;;;;5.37;49.79;96220.81;4998614;28;19933;-59
2021/11/15 10:33:54;;;;;;;;;;;;;;;5.57;48.49;96220.91;4998566;28;19925;-64
2021/11/15 10:36:20;;;;;;;;;;;;;;;5.45;48.34;96228.91;4998306;28;19951;-63
2021/11/15 10:38:46;;;;;;;;;;;;;;;5.55;50.22;96222.88;4996425;28;20433;-63
2021/11/15 10:41:12;;;;;;;;;;;;;;;5.31;49.75;96214.25;4998077;28;19925;-59
2021/11/15 10:43:38;;;;;;;;;;;;;;;5.47;49.06;96216.44;4996293;28;19957;-59
2021/11/15 10:46:03;;;;;;;;;;;;;;;5.54;50.13;96214.09;4993659;28;20028;-62
2021/11/15 10:48:28;;;;;;;;;;;;;;;5.53;49.39;96209.78;4992270;28;19929;-57
2021/11/15 10:50:56;;;;;;;;;;;;;;;5.64;49.95;96211.50;4996097;28;19932;-59
2021/11/15 10:53:55;;;;;;;;;;;;;;;5.66;48.24;96203.44;4997537;28;19956;-61
2021/11/15 10:56:31;;;;;;;;;;;;;;;5.74;46.59;96204.47;4995986;28;19964;-61
2021/11/15 10:58:57;;;;;;;;;;;;;;;5.56;47.37;96198.97;4997099;28;19925;-61
2021/11/15 11:01:28;;;;;;;;;;;;;;;5.63;48.29;96191.34;4997636;28;20133;-61
2021/11/15 11:04:05;;;;;;;;;;;;;;;5.52;48.68;96188.78;4996851;28;19933;-62
2021/11/15 11:06:30;;;;;;;;;;;;;;;5.46;47.33;96190.16;4998130;28;19921;-60
2021/11/15 11:08:56;;;;;;;;;;;;;;;5.38;51.23;96189.97;5000818;28;19925;-59
2021/11/15 11:11:25;;;;;;;;;;;;;;;5.58;49.62;96193.56;4997687;28;20011;-62
2021/11/15 11:13:54;;;;;;;;;;;;;;;5.61;50.27;96196.75;4996658;28;19928;-63
2021/11/15 11:16:20;;;;;;;;;;;;;;;5.48;50.69;96189.03;4997637;28;19925;-63
2021/11/15 11:18:49;;;;;;;;;;;;;;;5.64;51.75;96181.63;4997189;28;19928;-60
2021/11/15 11:26:24;;;;;;;;;;;;;;;5.64;49.69;96181.63;4998459;28;20540;-62
2021/11/15 11:28:50;;;;;;;;;;;;;;;5.66;48.61;96190.22;5002011;28;19921;-59
2021/11/15 11:31:15;;;;;;;;;;;;;;;5.71;48.70;96186.22;4999484;28;19925;-60
2021/11/15 11:33:44;;;;;;;;;;;;;;;5.88;46.50;96170.69;5001226;28;19967;-60
2021/11/15 11:36:09;;;;;;;;;;;;;;;5.91;48.39;96170.44;5001533;28;19988;-62
2021/11/15 11:38:34;;;;;;;;;;;;;;;5.90;47.73;96179.34;5001865;28;20276;-62
2021/11/15 11:41:00;;;;;;;;;;;;;;;5.97;48.93;96171.69;5001438;28;19925;-63
2021/11/15 11:43:25;;;;;;;;;;;;;;;5.93;46.57;96172.94;5000889;28;19929;-61
2021/11/15 11:45:50;;;;;;;;;;;;;;;5.73;49.75;96168.44;5001348;28;19932;-59
2021/11/15 11:48:16;;;;;;;;;;;;;;;5.84;47.21;96166.66;5001287;28;19929;-62
2021/11/15 11:50:42;;;;;;;;;;;;;;;5.84;47.17;96169.28;5001165;28;19922;-61
2021/11/15 11:53:08;;;;;;;;;;;;;;;5.89;47.58;96169.75;5001080;28;19928;-60
2021/11/15 11:55:34;;;;;;;;;;;;;;;5.80;48.99;96186.38;5001038;28;20381;-60
2021/11/15 11:58:18;;;;;;;;;;;;;;;5.77;49.05;96184.84;5001370;28;19924;-61
2021/11/15 12:00:50;;;;;;;;;;;;;;;5.92;47.77;96187.13;5001304;28;19922;-60
2021/11/15 12:03:16;;;;;;;;;;;;;;;5.96;46.83;96193.81;5000459;28;20024;-62
2021/11/15 12:05:41;;;;;;;;;;;;;;;5.93;49.41;96200.22;5000208;28;19929;-61
2021/11/15 12:08:09;;;;;;;;;;;;;;;5.89;50.69;96198.81;4999822;28;19928;-64
2021/11/15 12:10:40;;;;;;;;;;;;;;;5.88;47.63;96191.03;4993826;28;20485;-61
2021/11/15 12:13:06;;;;;;;;;;;;;;;5.80;48.74;96195.16;5000178;28;19925;-74
2021/11/15 12:15:33;;;;;;;;;;;;;;;5.77;49.70;96184.84;4998730;28;19980;-74
2021/11/15 12:18:19;;;;;;;;;;;;;;;5.77;49.27;96181.38;5000045;28;20000;-74
2021/11/15 12:21:00;;;;;;;;;;;;;;;5.78;48.24;96183.06;4995477;28;20592;-73
2021/11/15 12:23:25;;;;;;;;;;;;;;;5.87;50.46;96174.31;4999372;28;19922;-74
2021/11/15 12:26:00;;;;;;;;;;;;;;;5.77;48.45;96173.44;4999820;28;19951;-75
2021/11/15 12:28:26;;;;;;;;;;;;;;;5.71;49.16;96165.09;5015027;28;19925;-76
2021/11/15 12:30:51;;;;;;;;;;;;;;;5.73;49.39;96164.97;4993430;28;20032;-75
2021/11/15 12:33:18;;;;;;;;;;;;;;;5.79;49.98;96160.94;5000480;28;20012;-76
2021/11/15 12:35:53;;;;;;;;;;;;;;;5.77;47.39;96157.59;5000247;28;19925;-75
2021/11/15 12:38:37;;;;;;;;;;;;;;;5.84;48.87;96158.72;4999364;28;20465;-74
2021/11/15 12:41:23;;;;;;;;;;;;;;;5.79;49.14;96150.38;5000729;28;20603;-74
2021/11/15 12:43:49;;;;;;;;;;;;;;;5.72;48.30;96145.63;4999480;28;19925;-71
2021/11/15 12:46:16;;;;;;;;;;;;;;;5.86;48.82;96143.59;4998432;28;19939;-70
2021/11/15 12:48:42;;;;;;;;;;;;;;;5.82;48.29;96137.72;5003355;28;19925;-74
2021/11/15 12:51:11;;;;;;;;;;;;;;;5.67;49.26;96137.25;5000379;28;20357;-73
2021/11/15 12:53:48;;;;;;;;;;;;;;;5.86;48.78;96130.38;5001843;28;20024;-71
2021/11/15 12:56:14;;;;;;;;;;;;;;;5.96;48.32;96131.22;5001312;28;20394;-72
2021/11/15 12:58:44;;;;;;;;;;;;;;;6.03;48.30;96128.88;4992039;28;19922;-72